createdAt,value
2019-05-14T00:02:04.850Z,28.00
2019-05-14T00:04:36.624Z,27.00
2019-05-14T00:07:08.801Z,27.80
2019-05-14T00:09:41.363Z,26.40
2019-05-14T00:12:13.386Z,26.00
2019-05-14T00:14:45.410Z,28.20
2019-05-14T00:17:17.163Z,28.00
2019-05-14T00:20:05.933Z,26.00
2019-05-14T00:22:23.332Z,27.00
2019-05-14T00:24:55.043Z,28.20
2019-05-14T00:27:27.164Z,28.00
2019-05-14T00:29:59.122Z,28.60
2019-05-14T00:32:31.986Z,29.20
2019-05-14T00:35:03.548Z,28.00
2019-05-14T00:37:35.531Z,29.80
2019-05-14T00:40:07.206Z,30.00
2019-05-14T00:42:41.138Z,28.00
2019-05-14T00:45:12.383Z,28.00
2019-05-14T00:47:43.864Z,27.40
2019-05-14T00:50:15.432Z,26.00
2019-05-14T00:52:47.251Z,26.60
2019-05-14T00:55:19.187Z,27.80
2019-05-14T00:57:52.234Z,27.00
2019-05-14T01:00:23.834Z,26.60
2019-05-14T01:02:55.655Z,25.80
2019-05-14T01:05:27.233Z,26.00
2019-05-14T01:08:01.901Z,28.00
2019-05-14T01:10:33.598Z,22.20
2019-05-14T01:13:04.978Z,25.80
2019-05-14T01:15:36.461Z,24.80
2019-05-14T01:18:08.073Z,23.40
2019-05-14T01:20:41.182Z,21.00
2019-05-14T01:23:12.713Z,23.40
2019-05-14T01:25:44.023Z,21.20
2019-05-14T01:28:15.751Z,21.20
2019-05-14T01:30:47.014Z,21.80
2019-05-14T01:33:21.076Z,20.80
2019-05-14T01:35:52.524Z,21.40
2019-05-14T01:38:24.715Z,23.00
2019-05-14T01:40:56.381Z,18.20
2019-05-14T01:43:28.088Z,20.00
2019-05-14T01:46:02.049Z,21.60
2019-05-14T01:48:34.062Z,15.60
2019-05-14T01:51:05.680Z,18.00
2019-05-14T01:53:37.660Z,19.80
2019-05-14T01:56:11.805Z,21.60
2019-05-14T01:58:43.281Z,18.20
2019-05-14T02:01:14.823Z,20.80
2019-05-14T02:03:46.492Z,19.20
2019-05-14T02:06:17.978Z,17.00
2019-05-14T02:08:51.535Z,22.20
2019-05-14T02:11:23.542Z,20.80
2019-05-14T02:13:55.057Z,23.60
2019-05-14T02:16:26.984Z,26.80
2019-05-14T02:19:01.215Z,32.40
2019-05-14T02:21:32.556Z,30.00
2019-05-14T02:24:04.793Z,30.20
2019-05-14T02:26:36.480Z,29.60
2019-05-14T02:29:08.090Z,28.80
2019-05-14T02:31:39.647Z,29.40
2019-05-14T02:34:11.443Z,27.80
2019-05-14T02:36:43.059Z,23.60
2019-05-14T02:39:15.123Z,22.60
2019-05-14T02:41:59.438Z,23.20
2019-05-14T02:44:31.686Z,23.20
2019-05-14T02:47:03.091Z,23.00
2019-05-14T02:49:35.215Z,23.00
2019-05-14T02:52:09.816Z,22.00
2019-05-14T02:54:40.724Z,20.80
2019-05-14T02:57:12.699Z,18.80
2019-05-14T02:59:44.883Z,20.60
2019-05-14T03:02:18.806Z,18.80
2019-05-14T03:04:52.043Z,15.40
2019-05-14T03:07:23.609Z,19.80
2019-05-14T03:09:55.507Z,22.20
2019-05-14T03:12:30.127Z,20.60
2019-05-14T03:15:00.798Z,22.00
2019-05-14T03:17:34.720Z,19.00
2019-05-14T03:20:09.108Z,22.80
2019-05-14T03:22:54.928Z,20.40
2019-05-14T03:25:14.194Z,21.20
2019-05-14T03:27:49.689Z,18.40
2019-05-14T03:30:23.254Z,20.40
2019-05-14T03:32:55.029Z,20.40
2019-05-14T03:35:40.207Z,20.20
2019-05-14T03:38:00.712Z,20.00
2019-05-14T03:40:32.734Z,17.20
2019-05-14T03:43:04.187Z,20.80
2019-05-14T03:45:38.904Z,17.60
2019-05-14T03:48:10.274Z,19.80
2019-05-14T03:50:42.367Z,20.80
2019-05-14T03:53:14.107Z,20.60
2019-05-14T03:55:45.741Z,17.40
2019-05-14T03:58:21.180Z,20.20
2019-05-14T04:00:59.851Z,21.20
2019-05-14T04:03:31.877Z,18.80
2019-05-14T04:06:03.882Z,19.20
2019-05-14T04:08:39.148Z,20.00
2019-05-14T04:11:12.332Z,20.20
2019-05-14T04:13:49.629Z,22.80
2019-05-14T04:16:23.810Z,21.20
2019-05-14T04:18:59.422Z,21.80
2019-05-14T04:21:33.287Z,21.60
2019-05-14T04:24:05.678Z,23.40
2019-05-14T04:26:56.463Z,23.60
2019-05-14T04:29:19.675Z,22.40
2019-05-14T04:31:52.411Z,20.60
2019-05-14T04:34:24.157Z,23.00
2019-05-14T04:36:59.087Z,22.20
2019-05-14T04:39:30.789Z,22.20
2019-05-14T04:42:03.405Z,19.80
2019-05-14T04:44:34.967Z,20.20
2019-05-14T04:47:25.824Z,22.00
2019-05-14T04:49:40.172Z,19.00
2019-05-14T04:52:11.889Z,20.80
2019-05-14T04:54:43.405Z,20.20
2019-05-14T04:57:15.514Z,19.40
2019-05-14T04:59:49.400Z,19.20
2019-05-14T05:02:23.480Z,19.80
2019-05-14T05:04:54.950Z,22.00
2019-05-14T05:07:29.522Z,22.00
2019-05-14T05:10:01.019Z,21.20
2019-05-14T05:12:33.081Z,20.20
2019-05-14T05:15:04.832Z,20.20
2019-05-14T05:17:44.307Z,21.60
2019-05-14T05:20:10.375Z,21.00
2019-05-14T05:22:42.291Z,19.80
2019-05-14T05:25:14.040Z,19.20
2019-05-14T05:27:48.548Z,19.60
2019-05-14T05:30:20.228Z,19.20
2019-05-14T05:32:54.296Z,17.40
2019-05-14T05:35:29.000Z,16.40
2019-05-14T05:38:00.327Z,18.20
2019-05-14T05:40:32.780Z,14.80
2019-05-14T05:43:04.517Z,16.60
2019-05-14T05:45:37.957Z,15.00
2019-05-14T05:48:10.276Z,16.80
2019-05-14T05:50:42.143Z,18.80
2019-05-14T05:53:13.447Z,18.80
2019-05-14T05:55:45.276Z,17.00
2019-05-14T05:58:19.507Z,17.20
2019-05-14T06:00:50.321Z,14.80
2019-05-14T06:03:21.895Z,17.80
2019-05-14T06:05:53.542Z,16.00
2019-05-14T06:08:25.157Z,18.00
2019-05-14T06:10:58.899Z,15.80
2019-05-14T06:13:30.017Z,16.20
2019-05-14T06:16:01.608Z,15.60
2019-05-14T06:18:34.550Z,15.80
2019-05-14T06:21:06.348Z,14.20
2019-05-14T06:23:38.806Z,17.00
2019-05-14T06:26:11.376Z,15.40
2019-05-14T06:28:43.301Z,15.00
2019-05-14T06:31:15.087Z,16.00
2019-05-14T06:33:48.648Z,16.00
2019-05-14T06:36:20.562Z,15.40
2019-05-14T06:38:52.404Z,16.00
2019-05-14T06:41:24.316Z,14.60
2019-05-14T06:43:58.623Z,15.20
2019-05-14T06:46:29.714Z,16.00
2019-05-14T06:49:02.008Z,14.20
2019-05-14T06:51:33.913Z,13.60
2019-05-14T06:54:05.933Z,9.00
2019-05-14T06:56:38.583Z,16.60
2019-05-14T06:59:10.488Z,16.00
2019-05-14T07:01:42.486Z,13.40
2019-05-14T07:04:14.379Z,15.80
2019-05-14T07:06:48.403Z,12.20
2019-05-14T07:09:20.021Z,15.00
2019-05-14T07:11:51.810Z,11.40
2019-05-14T07:14:28.252Z,10.60
2019-05-14T07:17:00.982Z,11.60
2019-05-14T07:19:33.183Z,10.60
2019-05-14T07:22:05.018Z,12.80
2019-05-14T07:24:40.641Z,10.40
2019-05-14T07:27:12.601Z,10.20
2019-05-14T07:29:44.276Z,11.40
2019-05-14T07:32:18.912Z,9.00
2019-05-14T07:34:49.978Z,11.80
2019-05-14T07:37:22.170Z,13.20
2019-05-14T07:39:53.895Z,12.80
2019-05-14T07:42:25.799Z,10.60
2019-05-14T07:44:58.927Z,12.00
2019-05-14T07:47:30.814Z,0.60
2019-05-14T07:50:03.265Z,9.80
2019-05-14T07:52:35.192Z,9.60
2019-05-14T07:55:09.235Z,10.40
2019-05-14T07:57:42.153Z,9.20
2019-05-14T08:00:14.580Z,8.00
2019-05-14T08:02:49.115Z,10.20
2019-05-14T08:05:20.886Z,12.40
2019-05-14T08:07:52.688Z,9.00
2019-05-14T08:10:24.513Z,11.40
2019-05-14T08:12:58.757Z,8.00
2019-05-14T08:15:30.253Z,9.40
2019-05-14T08:18:01.995Z,12.00
2019-05-14T08:20:38.017Z,10.20
2019-05-14T08:23:09.921Z,9.80
2019-05-14T08:25:41.493Z,6.80
2019-05-14T08:28:14.237Z,7.60
2019-05-14T08:30:49.102Z,8.40
2019-05-14T08:33:25.987Z,9.00
2019-05-14T08:35:58.214Z,8.00
2019-05-14T08:38:29.982Z,9.40
2019-05-14T08:41:01.930Z,8.40
2019-05-14T08:43:33.598Z,10.20
2019-05-14T08:46:05.349Z,8.80
2019-05-14T08:48:38.939Z,9.00
2019-05-14T08:51:10.738Z,7.20
2019-05-14T08:53:42.858Z,7.20
2019-05-14T08:56:14.685Z,9.60
2019-05-14T08:58:49.148Z,8.80
2019-05-14T09:01:23.338Z,8.80
2019-05-14T09:03:55.288Z,8.40
2019-05-14T09:06:28.932Z,8.00
2019-05-14T09:09:00.739Z,7.60
2019-05-14T09:11:36.601Z,8.00
2019-05-14T09:14:10.932Z,8.60
2019-05-14T09:16:46.770Z,8.80
2019-05-14T09:19:19.086Z,8.00
2019-05-14T09:21:50.404Z,7.20
2019-05-14T09:24:22.573Z,8.00
2019-05-14T09:26:54.510Z,8.80
2019-05-14T09:29:29.148Z,7.40
2019-05-14T09:32:00.382Z,10.00
2019-05-14T09:34:32.825Z,8.80
2019-05-14T09:37:05.346Z,10.00
2019-05-14T09:39:48.654Z,9.60
2019-05-14T09:42:21.698Z,9.60
2019-05-14T09:45:04.460Z,9.00
2019-05-14T09:47:59.239Z,7.60
2019-05-14T09:50:51.247Z,8.20
2019-05-14T09:53:38.420Z,7.60
2019-05-14T09:56:31.261Z,9.40
2019-05-14T09:59:18.508Z,8.00
2019-05-14T10:02:08.968Z,7.20
2019-05-14T10:04:59.520Z,7.40
2019-05-14T10:07:45.156Z,7.80
2019-05-14T10:10:36.222Z,7.60
2019-05-14T10:13:21.451Z,8.00
2019-05-14T10:16:06.104Z,7.00
2019-05-14T10:18:52.956Z,8.00
2019-05-14T10:21:38.785Z,7.00
2019-05-14T10:24:24.125Z,7.60
2019-05-14T10:27:18.789Z,6.00
2019-05-14T10:30:01.999Z,8.20
2019-05-14T10:32:49.254Z,8.20
2019-05-14T10:35:23.457Z,9.20
2019-05-14T10:37:55.731Z,9.20
2019-05-14T10:40:29.210Z,10.00
2019-05-14T10:43:01.540Z,8.60
2019-05-14T10:45:33.461Z,9.00
2019-05-14T10:48:05.322Z,8.80
2019-05-14T10:50:55.110Z,10.40
2019-05-14T10:53:10.744Z,9.80
2019-05-14T10:55:42.295Z,9.20
2019-05-14T10:58:14.313Z,9.20
2019-05-14T11:00:46.104Z,10.40
2019-05-14T11:03:18.770Z,11.20
2019-05-14T11:05:50.204Z,10.80
2019-05-14T11:08:22.026Z,11.00
2019-05-14T11:10:53.881Z,11.20
2019-05-14T11:13:28.943Z,10.00
2019-05-14T11:15:59.809Z,11.20
2019-05-14T11:18:31.795Z,12.00
2019-05-14T11:21:18.903Z,11.00
2019-05-14T11:23:38.668Z,11.00
2019-05-14T11:26:12.029Z,9.60
2019-05-14T11:28:43.765Z,13.20
2019-05-14T11:31:15.650Z,10.60
2019-05-14T11:33:49.691Z,12.00
2019-05-14T11:36:20.811Z,10.20
2019-05-14T11:39:12.655Z,12.00
2019-05-14T11:41:44.911Z,12.60
2019-05-14T11:44:17.021Z,13.40
2019-05-14T11:46:56.968Z,11.40
2019-05-14T11:49:22.222Z,12.00
2019-05-14T11:52:04.148Z,13.60
2019-05-14T11:54:29.203Z,12.40
2019-05-14T11:57:00.602Z,11.80
2019-05-14T11:59:32.190Z,13.00
2019-05-14T12:02:03.715Z,9.80
2019-05-14T12:04:35.335Z,13.80
2019-05-14T12:07:09.379Z,12.20
2019-05-14T12:09:40.540Z,11.80
2019-05-14T12:12:12.899Z,12.40
2019-05-14T12:14:44.518Z,9.00
2019-05-14T12:17:19.311Z,5.40
2019-05-14T12:19:50.814Z,12.00
2019-05-14T12:22:22.402Z,12.60
2019-05-14T12:24:54.812Z,13.00
2019-05-14T12:27:26.388Z,13.00
2019-05-14T12:29:59.849Z,16.60
2019-05-14T12:32:31.303Z,12.60
2019-05-14T12:35:03.396Z,12.80
2019-05-14T12:37:35.186Z,8.60
2019-05-14T12:40:08.774Z,13.00
2019-05-14T12:42:40.765Z,12.60
2019-05-14T12:45:13.085Z,17.80
2019-05-14T12:47:44.801Z,18.00
2019-05-14T12:50:17.719Z,13.80
2019-05-14T12:52:49.809Z,13.80
2019-05-14T12:55:21.237Z,15.80
2019-05-14T12:57:53.172Z,14.60
2019-05-14T13:00:25.155Z,14.00
2019-05-14T13:02:58.513Z,13.00
2019-05-14T13:05:30.324Z,12.60
2019-05-14T13:08:02.218Z,13.40
2019-05-14T13:10:33.824Z,15.80
2019-05-14T13:13:07.921Z,12.60
2019-05-14T13:15:39.507Z,14.80
2019-05-14T13:18:11.280Z,13.00
2019-05-14T13:20:42.867Z,15.40
2019-05-14T13:23:14.602Z,13.00
2019-05-14T13:25:46.581Z,16.00
2019-05-14T13:28:19.437Z,15.80
2019-05-14T13:30:51.336Z,14.00
2019-05-14T13:33:23.412Z,15.20
2019-05-14T13:35:55.364Z,15.40
2019-05-14T13:38:27.176Z,12.60
2019-05-14T13:40:59.451Z,16.60
2019-05-14T13:43:33.858Z,17.20
2019-05-14T13:46:10.429Z,15.00
2019-05-14T13:48:43.587Z,18.20
2019-05-14T13:51:15.593Z,17.60
2019-05-14T13:53:49.641Z,17.00
2019-05-14T13:56:28.191Z,16.20
2019-05-14T13:59:03.147Z,19.00
2019-05-14T14:01:35.105Z,18.60
2019-05-14T14:04:18.351Z,22.00
2019-05-14T14:06:52.415Z,19.40
2019-05-14T14:09:28.443Z,22.00
2019-05-14T14:12:01.619Z,17.80
2019-05-14T14:14:33.376Z,18.80
2019-05-14T14:17:05.198Z,21.40
2019-05-14T14:19:38.923Z,20.60
2019-05-14T14:22:10.249Z,17.60
2019-05-14T14:24:50.143Z,21.40
2019-05-14T14:27:19.943Z,24.00
2019-05-14T14:29:51.676Z,22.00
2019-05-14T14:32:23.324Z,21.80
2019-05-14T14:34:55.353Z,22.80
2019-05-14T14:37:28.602Z,22.60
2019-05-14T14:40:00.894Z,20.60
2019-05-14T14:42:35.555Z,23.00
2019-05-14T14:45:08.588Z,23.20
2019-05-14T14:47:40.376Z,22.80
2019-05-14T14:50:19.414Z,23.00
2019-05-14T14:52:51.574Z,23.00
2019-05-14T14:55:30.216Z,23.40
2019-05-14T14:58:00.099Z,24.00
2019-05-14T15:00:33.396Z,26.20
2019-05-14T15:03:05.411Z,21.00
2019-05-14T15:05:39.004Z,26.80
2019-05-14T15:08:12.223Z,26.60
2019-05-14T15:10:44.872Z,24.80
2019-05-14T15:13:17.403Z,23.00
2019-05-14T15:15:52.581Z,23.60
2019-05-14T15:18:24.145Z,23.40
2019-05-14T15:20:58.691Z,23.60
2019-05-14T15:23:29.680Z,26.00
2019-05-14T15:26:01.516Z,22.20
2019-05-14T15:28:33.198Z,23.40
2019-05-14T15:31:05.220Z,23.80
2019-05-14T15:33:37.068Z,24.00
2019-05-14T15:36:09.312Z,23.80
2019-05-14T15:38:41.287Z,23.60
2019-05-14T15:41:13.725Z,24.00
2019-05-14T15:43:45.707Z,24.40
2019-05-14T15:46:18.557Z,26.00
2019-05-14T15:48:50.694Z,24.00
2019-05-14T15:51:22.480Z,24.60
2019-05-14T15:54:07.261Z,26.00
2019-05-14T15:56:29.888Z,22.40
2019-05-14T15:59:01.428Z,25.60
2019-05-14T16:01:33.821Z,25.80
2019-05-14T16:04:05.571Z,25.60
2019-05-14T16:06:38.624Z,26.20
2019-05-14T16:09:10.822Z,27.20
2019-05-14T16:11:42.577Z,22.60
2019-05-14T16:14:14.492Z,24.20
2019-05-14T16:16:48.526Z,25.60
2019-05-14T16:19:19.211Z,25.80
2019-05-14T16:21:51.005Z,24.60
2019-05-14T16:24:22.725Z,27.20
2019-05-14T16:27:14.278Z,26.20
2019-05-14T16:29:46.327Z,23.40
2019-05-14T18:01:21.439Z,27.20
2019-05-14T18:03:53.880Z,28.00
2019-05-14T18:06:28.374Z,25.60
2019-05-14T18:08:59.767Z,27.20
2019-05-14T18:11:39.938Z,27.40
2019-05-14T18:14:11.812Z,28.20
2019-05-14T18:16:44.029Z,27.60
2019-05-14T18:19:18.159Z,28.20
2019-05-14T18:21:49.531Z,28.20
2019-05-14T18:24:28.329Z,25.40
2019-05-14T18:27:02.718Z,27.20
2019-05-14T18:29:34.797Z,26.20
2019-05-14T18:32:09.014Z,26.00
2019-05-14T18:34:41.903Z,27.00
2019-05-14T18:37:18.183Z,27.20
2019-05-14T18:39:49.341Z,27.20
2019-05-14T18:42:22.817Z,26.60
2019-05-14T18:44:54.488Z,26.80
2019-05-14T18:47:28.534Z,25.80
2019-05-14T18:49:59.816Z,26.80
2019-05-14T18:52:31.689Z,26.40
2019-05-14T18:55:03.368Z,27.20
2019-05-14T18:57:35.112Z,27.80
2019-05-14T19:00:06.979Z,27.00
2019-05-14T19:02:39.785Z,26.40
2019-05-14T19:05:11.972Z,27.20
2019-05-14T19:07:43.569Z,27.20
2019-05-14T19:10:15.431Z,25.20
2019-05-14T19:12:49.976Z,27.60
2019-05-14T19:15:20.709Z,27.00
2019-05-14T19:17:52.905Z,27.20
2019-05-14T19:20:24.844Z,26.60
2019-05-14T19:22:56.550Z,27.40
2019-05-14T19:25:27.995Z,27.80
2019-05-14T19:27:59.819Z,28.00
2019-05-14T19:30:31.371Z,26.20
2019-05-14T19:33:03.316Z,25.80
2019-05-14T19:35:35.403Z,26.40
2019-05-14T19:38:08.895Z,28.20
2019-05-14T19:40:40.633Z,26.40
2019-05-14T19:43:12.580Z,26.40
2019-05-14T19:45:44.088Z,27.60
2019-05-14T19:48:15.683Z,26.40
2019-05-14T19:50:49.100Z,26.60
2019-05-14T19:53:21.005Z,24.20
2019-05-14T19:55:52.621Z,28.00
2019-05-14T19:58:24.309Z,27.40
2019-05-14T20:00:56.330Z,28.20
2019-05-14T20:03:29.208Z,27.60
2019-05-14T20:06:01.664Z,25.80
2019-05-14T20:08:33.755Z,27.20
2019-05-14T20:11:05.704Z,26.80
2019-05-14T20:13:39.104Z,26.60
2019-05-14T20:16:11.161Z,28.00
2019-05-14T20:18:42.928Z,24.60
2019-05-14T20:21:14.674Z,25.20
2019-05-14T20:23:48.119Z,27.00
2019-05-14T20:26:20.034Z,26.60
2019-05-14T20:28:52.148Z,27.20
2019-05-14T20:31:24.071Z,27.20
2019-05-14T20:33:56.009Z,26.20
2019-05-14T20:36:28.267Z,24.80
2019-05-14T20:38:59.740Z,27.60
2019-05-14T20:41:31.318Z,27.20
2019-05-14T20:44:02.587Z,26.00
2019-05-14T20:46:34.439Z,30.00
2019-05-14T20:49:08.797Z,27.80
2019-05-14T20:51:40.504Z,28.40
2019-05-14T20:54:12.511Z,29.20
2019-05-14T20:56:44.130Z,28.20
2019-05-14T20:59:15.560Z,28.20
2019-05-14T21:01:47.288Z,27.20
2019-05-14T21:04:19.065Z,29.40
2019-05-14T21:06:51.452Z,28.20
2019-05-14T21:09:23.078Z,28.60
2019-05-14T21:11:56.457Z,29.60
2019-05-14T21:14:28.076Z,28.80
2019-05-14T21:16:59.889Z,29.20
2019-05-14T21:19:31.488Z,29.20
2019-05-14T21:22:03.213Z,26.40
2019-05-14T21:24:34.944Z,28.20
2019-05-14T21:27:09.125Z,28.20
2019-05-14T21:29:40.186Z,28.20
2019-05-14T21:32:12.131Z,29.20
2019-05-14T21:34:43.511Z,29.40
2019-05-14T21:37:15.627Z,28.20
2019-05-14T21:39:48.926Z,28.20
2019-05-14T21:42:20.363Z,28.20
2019-05-14T21:44:51.994Z,28.20
2019-05-14T21:47:23.717Z,28.20
2019-05-14T21:49:55.430Z,30.20
2019-05-14T21:52:28.924Z,29.60
2019-05-14T21:55:00.257Z,28.20
2019-05-14T21:57:31.729Z,28.80
2019-05-14T22:00:03.365Z,28.75
2019-05-14T22:02:38.402Z,30.20
2019-05-14T22:05:09.819Z,28.20
2019-05-14T22:07:42.461Z,28.20
2019-05-14T22:10:14.413Z,28.80
2019-05-14T22:12:48.571Z,27.60
2019-05-14T22:15:20.192Z,30.20
2019-05-14T22:17:51.747Z,31.20
2019-05-14T22:20:23.576Z,28.20
2019-05-14T22:22:55.448Z,29.20
2019-05-14T22:25:28.477Z,29.80
2019-05-14T22:28:11.142Z,31.00
2019-05-14T22:30:33.811Z,27.80
2019-05-14T22:33:08.187Z,29.00
2019-05-14T22:35:39.779Z,30.60
2019-05-14T22:38:11.853Z,29.20
2019-05-14T22:40:44.182Z,31.20
2019-05-14T22:43:18.163Z,29.20
2019-05-14T22:45:49.283Z,31.60
2019-05-14T22:48:21.256Z,28.80
2019-05-14T22:50:53.046Z,30.40
2019-05-14T22:53:25.022Z,28.20
2019-05-14T22:55:58.611Z,28.80
2019-05-14T22:58:30.505Z,28.00
2019-05-14T23:01:14.207Z,31.60
2019-05-14T23:03:39.572Z,29.20
2019-05-14T23:06:11.554Z,29.00
2019-05-14T23:08:43.406Z,30.80
2019-05-14T23:11:15.870Z,29.20
2019-05-14T23:13:48.877Z,30.80
2019-05-14T23:16:33.132Z,29.20
2019-05-14T23:18:54.327Z,29.20
2019-05-14T23:21:28.365Z,30.00
2019-05-14T23:23:59.842Z,32.20
2019-05-14T23:26:32.724Z,30.20
2019-05-14T23:29:04.286Z,29.80
2019-05-14T23:31:38.259Z,30.80
2019-05-14T23:34:09.519Z,29.40
2019-05-14T23:36:41.486Z,32.20
2019-05-14T23:39:13.361Z,31.00
2019-05-14T23:41:45.854Z,31.20
2019-05-14T23:44:19.114Z,32.00
2019-05-14T23:46:51.389Z,31.20
2019-05-14T23:49:23.062Z,26.60
2019-05-14T23:51:54.712Z,31.20
2019-05-14T23:54:26.308Z,33.20
2019-05-14T23:56:58.855Z,32.40
2019-05-14T23:59:32.253Z,31.20
